Time;durP1;ratioP1;P1;durP2;ratioP2;P2;SDS_P1;SDS_P2;PMS_P1;PMS_P2;Temp;Humidity;BMP_temperature;BMP_pressure;BME280_temperature;BME280_humidity;BME280_pressure;Samples;Min_cycle;Max_cycle;Signal;HPM_P1;HPM_P2
2023/03/02 00:01:37;;;;;;;26.73;15.90;;;;;;;2.72;75.15;100982.16;5005671;28;20033;-64
2023/03/02 00:04:06;;;;;;;28.52;15.98;;;;;;;2.62;74.39;100969.41;5005293;28;20488;-65
2023/03/02 00:06:33;;;;;;;30.73;16.15;;;;;;;2.58;74.64;100965.19;5005030;28;20058;-64
2023/03/02 00:08:59;;;;;;;31.10;16.90;;;;;;;2.66;74.16;100984.22;5007228;28;20029;-65
2023/03/02 00:11:27;;;;;;;30.55;16.55;;;;;;;2.58;73.84;100978.41;5004585;28;20049;-65
2023/03/02 00:13:53;;;;;;;34.97;17.85;;;;;;;2.56;73.30;100986.44;5005024;28;20025;-65
2023/03/02 00:16:18;;;;;;;29.90;17.10;;;;;;;2.54;72.41;100990.09;5004768;28;20038;-65
2023/03/02 00:18:44;;;;;;;29.92;15.77;;;;;;;2.46;72.14;100977.19;5004754;28;20094;-65
2023/03/02 00:21:10;;;;;;;30.08;16.55;;;;;;;2.41;71.28;100967.72;5004954;28;20695;-65
2023/03/02 00:23:37;;;;;;;30.08;16.95;;;;;;;2.43;70.67;100962.28;5006375;28;20052;-65
2023/03/02 00:26:03;;;;;;;30.58;16.02;;;;;;;2.38;70.45;100961.63;5005573;28;20026;-65
2023/03/02 00:28:29;;;;;;;29.30;14.93;;;;;;;2.42;69.37;100972.09;5003374;28;20029;-66
2023/03/02 00:30:55;;;;;;;29.33;15.00;;;;;;;2.45;69.06;100970.16;5003409;28;20075;-65
2023/03/02 00:33:21;;;;;;;30.42;15.70;;;;;;;2.47;68.22;100967.44;5005901;28;20044;-65
2023/03/02 00:35:48;;;;;;;29.95;16.05;;;;;;;2.48;66.96;100958.59;5004352;28;20555;-65
2023/03/02 00:38:13;;;;;;;27.70;15.70;;;;;;;2.46;66.66;100955.13;5004550;28;20033;-65
2023/03/02 00:40:47;;;;;;;27.83;14.90;;;;;;;2.51;65.93;100961.09;5005106;28;20033;-63
2023/03/02 00:43:12;;;;;;;27.35;15.35;;;;;;;2.49;65.82;100952.34;5004731;28;20392;-64
2023/03/02 00:45:38;;;;;;;31.20;14.65;;;;;;;2.46;65.21;100948.06;5005026;28;20030;-64
2023/03/02 00:48:04;;;;;;;27.27;15.10;;;;;;;2.34;64.85;100928.31;5006953;28;20327;-64
2023/03/02 00:50:29;;;;;;;29.05;15.40;;;;;;;2.28;64.85;100925.06;5009356;28;20105;-65
2023/03/02 00:52:55;;;;;;;30.25;15.35;;;;;;;2.43;64.88;100946.38;5009119;28;20041;-65
2023/03/02 00:55:20;;;;;;;30.38;15.23;;;;;;;2.34;64.29;100935.38;5009194;28;20026;-65
2023/03/02 00:57:53;;;;;;;30.67;15.77;;;;;;;2.41;64.47;100946.56;5008699;28;20029;-65
2023/03/02 01:00:22;;;;;;;28.55;14.77;;;;;;;2.28;64.15;100931.22;5008583;28;20036;-64
2023/03/02 01:02:48;;;;;;;29.23;15.18;;;;;;;2.32;64.02;100932.78;5009648;28;20026;-65
2023/03/02 01:05:15;;;;;;;27.38;15.27;;;;;;;2.33;63.46;100936.31;5009167;28;20036;-65
2023/03/02 01:07:41;;;;;;;26.63;14.65;;;;;;;2.23;63.81;100917.31;5007036;28;20057;-65
2023/03/02 01:10:07;;;;;;;27.60;15.75;;;;;;;2.28;63.94;100920.63;5008562;28;20123;-64
2023/03/02 01:12:33;;;;;;;26.77;14.57;;;;;;;2.17;63.53;100907.00;5008722;28;20026;-64
2023/03/02 01:14:58;;;;;;;28.00;15.57;;;;;;;2.27;64.00;100920.69;5008606;28;20083;-71
2023/03/02 01:17:24;;;;;;;26.48;15.07;;;;;;;2.25;64.30;100923.41;5008982;28;20042;-71
2023/03/02 01:19:53;;;;;;;27.58;15.02;;;;;;;2.25;63.75;100919.88;5008864;28;20499;-71
2023/03/02 01:22:19;;;;;;;28.42;15.40;;;;;;;2.21;63.81;100913.91;5006776;28;20042;-71
2023/03/02 01:24:45;;;;;;;27.60;15.38;;;;;;;2.17;63.88;100908.81;5010105;28;20068;-71
2023/03/02 01:27:10;;;;;;;30.20;16.45;;;;;;;2.16;64.05;100907.09;5008160;28;20034;-71
2023/03/02 01:29:36;;;;;;;30.55;16.02;;;;;;;2.19;64.37;100909.56;5008278;28;20034;-71
2023/03/02 01:32:02;;;;;;;27.63;15.05;;;;;;;2.18;63.59;100908.72;5008794;28;20226;-71
2023/03/02 01:34:28;;;;;;;29.38;16.40;;;;;;;2.02;63.80;100875.06;5010529;28;20571;-71
2023/03/02 01:36:53;;;;;;;26.83;16.00;;;;;;;2.10;63.52;100880.91;5007447;28;20037;-71
2023/03/02 01:39:21;;;;;;;28.95;16.13;;;;;;;2.14;63.63;100896.56;5009238;28;20393;-71
2023/03/02 01:41:48;;;;;;;29.25;15.43;;;;;;;2.19;63.82;100899.88;5008946;28;20045;-71
2023/03/02 01:44:40;;;;;;;33.20;16.90;;;;;;;2.18;63.90;100889.34;5006528;28;20044;-72
2023/03/02 01:47:12;;;;;;;31.25;17.02;;;;;;;2.17;63.59;100893.75;5009201;28;20046;-70
2023/03/02 01:49:48;;;;;;;29.50;16.67;;;;;;;2.16;63.75;100889.41;5007713;28;20069;-70
2023/03/02 01:52:15;;;;;;;32.60;17.60;;;;;;;2.13;63.94;100886.91;5009446;28;20029;-70
2023/03/02 01:54:42;;;;;;;32.35;16.55;;;;;;;2.15;63.25;100887.69;5008829;28;20045;-71
2023/03/02 01:57:09;;;;;;;33.13;17.10;;;;;;;2.18;63.41;100878.75;5010136;28;20419;-71
2023/03/02 01:59:38;;;;;;;33.60;17.48;;;;;;;2.23;63.27;100885.56;5007967;28;20034;-71
2023/03/02 02:02:06;;;;;;;36.05;16.92;;;;;;;2.18;63.59;100882.28;5007690;28;20025;-71
2023/03/02 02:04:36;;;;;;;30.38;16.90;;;;;;;2.05;63.64;100857.28;5009004;28;20034;-70
2023/03/02 02:07:05;;;;;;;30.05;17.00;;;;;;;2.22;63.26;100886.50;5007683;28;20029;-71
2023/03/02 02:09:40;;;;;;;31.40;17.38;;;;;;;2.20;63.45;100882.22;5008900;28;20029;-70
2023/03/02 02:12:12;;;;;;;35.95;18.83;;;;;;;2.14;64.00;100869.25;5009034;28;20103;-71
2023/03/02 02:14:38;;;;;;;35.83;18.98;;;;;;;2.18;63.47;100858.47;5008650;28;20029;-71
2023/03/02 02:17:04;;;;;;;32.00;17.98;;;;;;;2.15;63.75;100865.66;5009769;28;20071;-71
2023/03/02 02:19:54;;;;;;;34.45;17.08;;;;;;;2.14;63.83;100872.75;5007064;28;20037;-71
2023/03/02 02:22:38;;;;;;;30.92;16.98;;;;;;;2.12;63.51;100879.91;5008500;28;20125;-69
2023/03/02 02:25:19;;;;;;;34.72;18.80;;;;;;;2.12;63.63;100866.66;5008676;28;20733;-71
2023/03/02 02:27:46;;;;;;;30.67;15.82;;;;;;;2.10;63.14;100871.16;5008158;28;20654;-71
2023/03/02 02:30:14;;;;;;;33.90;17.98;;;;;;;2.11;63.29;100880.84;5008544;28;20030;-71
2023/03/02 02:32:42;;;;;;;32.47;17.98;;;;;;;2.09;63.75;100877.38;5008372;28;20025;-71
2023/03/02 02:35:17;;;;;;;31.90;17.15;;;;;;;2.07;63.77;100878.38;5010604;28;20022;-71
2023/03/02 02:37:56;;;;;;;36.08;17.55;;;;;;;2.03;64.28;100867.06;5010119;28;20500;-71
2023/03/02 02:40:44;;;;;;;33.75;16.75;;;;;;;1.97;64.66;100875.28;5006721;28;20044;-71
2023/03/02 02:43:13;;;;;;;35.05;17.52;;;;;;;2.00;64.49;100875.13;5001501;28;20037;-71
2023/03/02 02:45:38;;;;;;;38.20;18.90;;;;;;;1.83;64.47;100856.50;5007689;28;20033;-72
2023/03/02 02:48:07;;;;;;;38.55;19.10;;;;;;;1.89;64.94;100872.13;5008568;28;20050;-71
2023/03/02 02:50:34;;;;;;;34.63;17.73;;;;;;;1.78;65.02;100855.84;5007024;28;20033;-71
2023/03/02 02:53:19;;;;;;;33.55;16.73;;;;;;;1.80;65.13;100867.22;5009178;28;20481;-71
2023/03/02 02:55:47;;;;;;;32.47;17.83;;;;;;;1.78;65.67;100871.72;5003975;28;20042;-66
2023/03/02 02:58:34;;;;;;;35.38;18.63;;;;;;;1.76;65.53;100870.94;5007620;28;20575;-65
2023/03/02 03:01:01;;;;;;;37.40;18.30;;;;;;;1.64;65.15;100858.22;5005865;28;20030;-65
2023/03/02 03:03:36;;;;;;;32.47;17.50;;;;;;;1.69;65.60;100876.53;5007566;28;20083;-65
2023/03/02 03:06:05;;;;;;;32.97;17.67;;;;;;;1.58;65.46;100866.41;5007741;28;20030;-65
2023/03/02 03:08:40;;;;;;;35.63;18.08;;;;;;;1.60;66.12;100874.28;5010003;28;20084;-65
2023/03/02 03:11:06;;;;;;;36.42;18.40;;;;;;;1.43;66.12;100848.59;5007742;28;20113;-65
2023/03/02 03:13:32;;;;;;;33.45;18.10;;;;;;;1.52;65.88;100866.69;5008628;28;20026;-65
2023/03/02 03:15:57;;;;;;;34.00;17.45;;;;;;;1.38;66.61;100861.13;5007590;28;20359;-64
2023/03/02 03:18:23;;;;;;;32.55;17.48;;;;;;;1.47;66.50;100876.59;5007546;28;20036;-64
2023/03/02 03:20:48;;;;;;;33.30;18.88;;;;;;;1.46;66.33;100877.53;5007009;28;20472;-64
2023/03/02 03:23:14;;;;;;;33.60;17.60;;;;;;;1.45;65.95;100872.31;5007557;28;20045;-64
2023/03/02 03:25:40;;;;;;;34.53;18.08;;;;;;;1.46;66.11;100884.59;5006979;28;20092;-65
2023/03/02 03:28:05;;;;;;;34.60;17.17;;;;;;;1.34;66.41;100866.59;5007768;28;20038;-65
2023/03/02 03:30:31;;;;;;;33.80;17.52;;;;;;;1.31;66.04;100872.88;5007155;28;20040;-65
2023/03/02 03:32:56;;;;;;;36.72;17.88;;;;;;;1.36;66.67;100875.34;5009805;28;20064;-65
2023/03/02 03:35:21;;;;;;;35.00;18.17;;;;;;;1.39;66.60;100880.50;5008936;28;20428;-65
2023/03/02 03:37:47;;;;;;;38.20;17.95;;;;;;;1.29;66.10;100872.06;5017942;28;20075;-66
2023/03/02 03:40:13;;;;;;;34.35;17.45;;;;;;;1.39;65.71;100880.50;5010651;28;20054;-65
2023/03/02 03:42:39;;;;;;;37.10;18.85;;;;;;;1.37;66.00;100875.25;5009402;28;20033;-65
2023/03/02 03:45:06;;;;;;;33.13;16.88;;;;;;;1.38;65.72;100874.34;5016041;28;20037;-65
2023/03/02 03:47:31;;;;;;;29.23;16.33;;;;;;;1.38;65.39;100882.25;5011297;28;20538;-66
2023/03/02 03:49:57;;;;;;;34.13;16.95;;;;;;;1.30;65.25;100868.53;5008157;28;20140;-65
2023/03/02 03:52:29;;;;;;;29.83;16.17;;;;;;;1.36;65.52;100884.09;5013627;28;20022;-65
2023/03/02 03:54:59;;;;;;;35.17;16.80;;;;;;;1.18;64.65;100847.88;5013989;28;20095;-65
2023/03/02 03:57:25;;;;;;;35.83;17.17;;;;;;;1.36;64.92;100885.91;5007949;28;20069;-66
2023/03/02 03:59:51;;;;;;;35.83;17.35;;;;;;;1.39;64.55;100881.31;5016357;28;20041;-66
2023/03/02 04:02:17;;;;;;;32.88;16.08;;;;;;;1.36;64.53;100878.81;5011606;28;20037;-66
2023/03/02 04:04:44;;;;;;;35.25;17.60;;;;;;;1.34;64.53;100859.53;5012024;28;20105;-64
2023/03/02 04:07:09;;;;;;;30.70;16.25;;;;;;;1.40;64.18;100871.63;5013556;28;20464;-65
2023/03/02 04:09:36;;;;;;;31.00;17.08;;;;;;;1.41;64.07;100875.97;5014646;28;20091;-64
2023/03/02 04:12:02;;;;;;;27.70;16.30;;;;;;;1.35;64.30;100870.97;5010450;28;20583;-65
2023/03/02 04:14:29;;;;;;;26.75;16.02;;;;;;;1.43;63.82;100880.31;5011369;28;20025;-65
2023/03/02 04:16:54;;;;;;;31.27;15.80;;;;;;;1.27;64.22;100855.44;5014051;28;20475;-65
2023/03/02 04:19:20;;;;;;;33.13;17.02;;;;;;;1.39;64.38;100877.84;5006682;28;20032;-65
2023/03/02 04:21:48;;;;;;;31.25;16.02;;;;;;;1.38;64.38;100878.75;5005702;28;20033;-64
2023/03/02 04:24:16;;;;;;;34.47;17.77;;;;;;;1.38;64.02;100876.97;5009598;28;20046;-65
2023/03/02 04:26:43;;;;;;;30.60;16.80;;;;;;;1.35;63.92;100886.84;5010348;28;20029;-66
2023/03/02 04:29:10;;;;;;;34.30;16.67;;;;;;;1.33;64.03;100876.31;5010700;28;20034;-65
2023/03/02 04:31:36;;;;;;;34.42;17.33;;;;;;;1.23;64.25;100859.09;5010457;28;20018;-65
2023/03/02 04:34:03;;;;;;;33.53;16.77;;;;;;;1.33;64.40;100884.25;5012981;28;20030;-65
2023/03/02 04:36:29;;;;;;;31.92;16.58;;;;;;;1.21;64.37;100866.25;5010124;28;20073;-65
2023/03/02 04:38:55;;;;;;;34.15;16.90;;;;;;;1.21;64.63;100868.91;5010536;28;20037;-65
2023/03/02 04:41:21;;;;;;;36.00;17.38;;;;;;;1.18;64.45;100863.75;5010240;28;20088;-65
2023/03/02 04:43:46;;;;;;;35.17;18.30;;;;;;;1.19;64.71;100876.00;5010229;28;20137;-66
2023/03/02 04:46:15;;;;;;;37.40;17.30;;;;;;;1.14;64.60;100885.91;5011364;28;20330;-64
2023/03/02 04:48:40;;;;;;;33.60;16.35;;;;;;;1.11;64.82;100888.69;5009906;28;20034;-64
2023/03/02 04:51:06;;;;;;;34.03;17.20;;;;;;;1.11;65.16;100895.72;5010202;28;20088;-70
2023/03/02 04:53:31;;;;;;;32.83;17.42;;;;;;;1.03;65.78;100882.00;5009143;28;20033;-70
2023/03/02 04:55:57;;;;;;;34.15;17.83;;;;;;;0.99;66.24;100881.25;5010231;28;20566;-70
2023/03/02 04:58:22;;;;;;;36.15;17.40;;;;;;;0.92;66.08;100876.25;5007808;28;20489;-71
2023/03/02 05:00:48;;;;;;;35.35;18.42;;;;;;;0.93;66.07;100878.00;5009381;28;20143;-71
2023/03/02 05:03:13;;;;;;;38.38;20.30;;;;;;;0.88;66.23;100880.81;5015981;28;20167;-71
2023/03/02 05:05:39;;;;;;;40.92;19.92;;;;;;;0.79;66.16;100878.53;5013720;28;20028;-70
2023/03/02 05:08:04;;;;;;;44.67;20.38;;;;;;;0.72;66.58;100863.88;5011933;28;20034;-71
2023/03/02 05:10:30;;;;;;;43.15;21.05;;;;;;;0.65;66.72;100866.78;5010982;28;20160;-71
2023/03/02 05:13:01;;;;;;;40.75;20.60;;;;;;;0.67;67.06;100881.63;5014627;28;20475;-71
2023/03/02 05:15:36;;;;;;;41.50;21.17;;;;;;;0.67;67.24;100889.56;5019633;28;20040;-71
2023/03/02 05:18:03;;;;;;;43.67;20.45;;;;;;;0.56;67.49;100888.25;5010655;28;20025;-71
2023/03/02 05:20:30;;;;;;;43.63;20.60;;;;;;;0.53;67.78;100885.72;5009641;28;20244;-70
2023/03/02 05:23:05;;;;;;;38.67;21.45;;;;;;;0.42;68.34;100872.94;5009811;28;20060;-69
2023/03/02 05:25:33;;;;;;;45.88;22.15;;;;;;;0.49;68.47;100884.13;5010123;28;20041;-70
2023/03/02 05:28:00;;;;;;;44.10;21.75;;;;;;;0.46;69.00;100886.88;5016845;28;20038;-71
2023/03/02 05:30:25;;;;;;;43.40;22.73;;;;;;;0.44;68.70;100892.22;5011116;28;20038;-71
2023/03/02 05:32:51;;;;;;;42.42;20.90;;;;;;;0.37;68.94;100890.72;5008189;28;20028;-72
2023/03/02 05:35:18;;;;;;;43.58;22.83;;;;;;;0.41;68.89;100897.59;5009171;28;20032;-70
2023/03/02 05:37:44;;;;;;;51.67;24.83;;;;;;;0.38;68.93;100888.97;5008704;28;20022;-71
2023/03/02 05:40:13;;;;;;;42.92;21.88;;;;;;;0.45;68.63;100895.72;5009581;28;20040;-70
2023/03/02 05:42:39;;;;;;;49.20;21.60;;;;;;;0.40;68.85;100887.09;5008345;28;20049;-71
2023/03/02 05:45:07;;;;;;;42.88;22.75;;;;;;;0.43;68.49;100890.50;5004893;28;20109;-71
2023/03/02 05:47:32;;;;;;;40.88;21.25;;;;;;;0.57;68.35;100906.66;5008624;28;20144;-70
2023/03/02 05:49:58;;;;;;;40.45;20.55;;;;;;;0.58;68.37;100905.75;5006583;28;20124;-70
2023/03/02 05:52:24;;;;;;;38.58;20.38;;;;;;;0.63;67.77;100898.53;5009692;28;20064;-70
2023/03/02 05:54:50;;;;;;;40.70;20.27;;;;;;;0.72;67.52;100908.72;5007074;28;20036;-70
2023/03/02 05:57:15;;;;;;;39.75;19.55;;;;;;;0.74;67.66;100908.69;5008850;28;20037;-70
2023/03/02 05:59:40;;;;;;;43.72;20.55;;;;;;;0.74;67.25;100898.97;5008349;28;20074;-70
2023/03/02 06:02:06;;;;;;;43.38;21.60;;;;;;;0.76;66.91;100886.56;5008425;28;20465;-71
2023/03/02 06:04:31;;;;;;;38.75;20.05;;;;;;;0.84;67.32;100895.03;5006636;28;20045;-70
2023/03/02 06:06:57;;;;;;;45.13;21.23;;;;;;;0.89;67.14;100897.50;5007587;28;20483;-70
2023/03/02 06:09:22;;;;;;;40.20;20.77;;;;;;;0.95;66.92;100908.69;5008462;28;20044;-71
2023/03/02 06:11:48;;;;;;;43.25;21.52;;;;;;;1.04;66.64;100912.75;5008417;28;20025;-71
2023/03/02 06:14:13;;;;;;;48.35;22.55;;;;;;;0.93;66.36;100883.28;5006779;28;20044;-71
2023/03/02 06:16:39;;;;;;;47.65;22.73;;;;;;;1.13;66.13;100913.22;5008519;28;20029;-71
2023/03/02 06:19:04;;;;;;;43.10;21.38;;;;;;;1.15;65.99;100914.03;5007709;28;20037;-71
2023/03/02 06:21:30;;;;;;;39.00;20.00;;;;;;;1.23;65.64;100909.28;5008154;28;20033;-71
2023/03/02 06:23:56;;;;;;;42.60;20.42;;;;;;;1.29;65.65;100911.69;5006746;28;20089;-71
2023/03/02 06:26:21;;;;;;;43.53;20.95;;;;;;;1.30;65.33;100905.50;5006808;28;20360;-65
2023/03/02 06:28:46;;;;;;;48.38;19.80;;;;;;;1.31;65.77;100890.50;5007484;28;20040;-65
2023/03/02 06:31:12;;;;;;;36.85;18.63;;;;;;;1.36;65.59;100902.59;5007930;28;20554;-64
2023/03/02 06:33:37;;;;;;;43.97;20.02;;;;;;;1.49;65.71;100911.72;5007154;28;20091;-70
2023/03/02 06:36:03;;;;;;;37.60;18.67;;;;;;;1.52;65.44;100916.91;5007315;28;20096;-71
2023/03/02 06:38:29;;;;;;;33.28;18.92;;;;;;;1.61;65.50;100916.50;5005638;28;20060;-72
2023/03/02 06:40:54;;;;;;;38.78;18.50;;;;;;;1.70;64.88;100921.44;5005379;28;20397;-72
2023/03/02 06:43:20;;;;;;;40.08;20.02;;;;;;;1.77;65.05;100924.66;5006503;28;20468;-72
2023/03/02 06:45:45;;;;;;;35.00;18.05;;;;;;;1.85;64.56;100918.16;5006290;28;20395;-72
2023/03/02 06:48:10;;;;;;;32.42;17.58;;;;;;;1.91;64.05;100925.78;5007122;28;20041;-66
2023/03/02 06:50:36;;;;;;;44.53;20.23;;;;;;;1.91;63.40;100909.09;5005653;28;20033;-65
2023/03/02 06:53:01;;;;;;;36.42;18.95;;;;;;;1.99;63.26;100915.75;5007240;28;20028;-66
2023/03/02 06:55:27;;;;;;;34.22;18.13;;;;;;;2.10;62.94;100917.94;5006982;28;20156;-65
2023/03/02 06:57:52;;;;;;;34.30;16.95;;;;;;;2.14;62.46;100908.94;5006367;28;20041;-65
2023/03/02 07:00:24;;;;;;;36.63;17.90;;;;;;;2.32;62.12;100924.84;5002626;28;20026;-65
2023/03/02 07:02:50;;;;;;;34.30;18.02;;;;;;;2.44;62.42;100928.72;5001055;28;20829;-65
2023/03/02 07:05:17;;;;;;;35.45;17.92;;;;;;;2.56;62.10;100930.84;5006742;28;20030;-66
2023/03/02 07:07:42;;;;;;;33.03;17.50;;;;;;;2.62;62.05;100919.09;5004225;28;20034;-64
2023/03/02 07:10:10;;;;;;;37.15;18.65;;;;;;;2.71;61.69;100932.75;5005076;28;20052;-66
2023/03/02 07:12:36;;;;;;;34.45;17.83;;;;;;;2.65;61.14;100897.78;5004188;28;20101;-65
2023/03/02 07:15:02;;;;;;;35.10;16.88;;;;;;;2.90;61.10;100930.97;5004837;28;20579;-65
2023/03/02 07:17:28;;;;;;;35.67;17.55;;;;;;;3.04;60.77;100943.59;5003500;28;20476;-66
2023/03/02 07:19:54;;;;;;;30.65;17.27;;;;;;;3.23;60.72;100941.78;5004067;28;20034;-66
2023/03/02 07:22:20;;;;;;;31.33;17.30;;;;;;;3.17;60.57;100921.75;5003722;28;20120;-65
2023/03/02 07:24:45;;;;;;;33.22;17.63;;;;;;;3.48;59.99;100934.38;5005675;28;20037;-65
2023/03/02 07:27:11;;;;;;;33.70;17.27;;;;;;;3.63;59.43;100942.44;5003598;28;20044;-64
2023/03/02 07:29:36;;;;;;;33.72;17.05;;;;;;;3.71;59.04;100926.97;5005830;28;20121;-65
2023/03/02 07:32:02;;;;;;;30.67;17.00;;;;;;;3.79;58.57;100916.84;5004012;28;20439;-64
2023/03/02 07:34:27;;;;;;;29.83;15.93;;;;;;;4.04;58.44;100929.72;5007008;28;20024;-65
2023/03/02 07:36:53;;;;;;;29.40;16.05;;;;;;;4.19;58.27;100923.59;5008207;28;20113;-66
2023/03/02 07:39:19;;;;;;;30.50;16.45;;;;;;;4.42;57.98;100917.97;5006618;28;20053;-65
2023/03/02 07:41:45;;;;;;;29.30;16.92;;;;;;;4.73;57.60;100921.53;5007167;28;20037;-66
2023/03/02 07:44:11;;;;;;;31.83;17.10;;;;;;;5.15;57.23;100920.97;5006471;28;20038;-64
2023/03/02 07:46:36;;;;;;;33.80;18.42;;;;;;;5.58;55.62;100917.56;5006006;28;20036;-64
2023/03/02 07:49:02;;;;;;;29.10;18.27;;;;;;;6.09;54.33;100908.34;5005416;28;20041;-65
2023/03/02 07:51:28;;;;;;;29.70;19.02;;;;;;;6.74;52.43;100906.03;5003666;28;20021;-65
2023/03/02 07:53:53;;;;;;;27.10;18.30;;;;;;;7.58;50.97;100901.44;5003062;28;20080;-65
2023/03/02 07:56:19;;;;;;;31.83;18.77;;;;;;;8.47;48.75;100902.38;4999538;28;20030;-65
2023/03/02 07:58:45;;;;;;;26.95;17.45;;;;;;;9.16;46.66;100893.84;5000395;28;20943;-66
2023/03/02 08:01:11;;;;;;;26.90;18.05;;;;;;;9.81;45.13;100895.16;5001654;28;20022;-65
2023/03/02 08:03:36;;;;;;;24.33;17.42;;;;;;;10.23;43.83;100889.22;5005566;28;20034;-65
2023/03/02 08:06:09;;;;;;;28.42;18.48;;;;;;;10.79;43.33;100896.34;5004696;28;20088;-72
2023/03/02 08:08:35;;;;;;;23.83;16.73;;;;;;;11.17;42.21;100896.81;5005149;28;20030;-72
2023/03/02 08:11:09;;;;;;;25.42;18.15;;;;;;;11.47;41.17;100901.50;5006982;28;20026;-73
2023/03/02 08:13:35;;;;;;;22.85;17.30;;;;;;;11.87;40.76;100886.50;5006375;28;20040;-73
2023/03/02 08:16:03;;;;;;;23.70;16.80;;;;;;;12.19;39.91;100903.41;5006865;28;20389;-73
2023/03/02 08:18:28;;;;;;;26.83;17.77;;;;;;;12.59;39.85;100896.34;5006566;28;20030;-73
2023/03/02 08:20:54;;;;;;;23.80;17.00;;;;;;;12.90;38.89;100892.66;5006228;28;20057;-73
2023/03/02 08:23:20;;;;;;;24.75;17.80;;;;;;;13.18;38.08;100896.47;5008011;28;20140;-73
2023/03/02 08:25:45;;;;;;;26.42;17.90;;;;;;;13.45;37.50;100905.59;5005384;28;20034;-73
2023/03/02 08:28:11;;;;;;;22.35;17.05;;;;;;;13.54;37.70;100894.00;5006010;28;20040;-73
2023/03/02 08:30:36;;;;;;;22.10;16.88;;;;;;;12.99;38.39;100891.88;5005171;28;20052;-74
2023/03/02 08:33:02;;;;;;;23.50;17.83;;;;;;;12.40;39.11;100892.66;5006731;28;20057;-73
2023/03/02 08:35:28;;;;;;;26.35;18.45;;;;;;;11.80;40.42;100897.91;5004942;28;20038;-73
2023/03/02 08:37:53;;;;;;;26.27;19.00;;;;;;;11.13;41.86;100897.19;5006820;28;20026;-74
2023/03/02 08:40:19;;;;;;;24.08;17.88;;;;;;;10.67;43.15;100899.13;5005995;28;20033;-73
2023/03/02 08:42:44;;;;;;;28.05;18.95;;;;;;;10.10;44.58;100904.53;5005584;28;20034;-73
2023/03/02 08:45:10;;;;;;;27.77;18.17;;;;;;;9.68;46.26;100880.09;5006445;28;20815;-73
2023/03/02 08:47:36;;;;;;;32.63;19.30;;;;;;;9.37;46.93;100884.22;5005856;28;20033;-72
2023/03/02 08:50:02;;;;;;;24.67;17.02;;;;;;;9.11;46.97;100879.91;5006253;28;20468;-73
2023/03/02 08:52:28;;;;;;;32.35;19.95;;;;;;;8.95;48.27;100895.38;5006464;28;20541;-72
2023/03/02 08:54:53;;;;;;;26.27;18.20;;;;;;;8.83;48.95;100877.50;5004824;28;20041;-66
2023/03/02 08:57:19;;;;;;;28.20;18.05;;;;;;;8.67;49.64;100868.88;5004720;28;20037;-65
2023/03/02 08:59:44;;;;;;;30.13;18.50;;;;;;;8.64;49.57;100887.84;5005403;28;20029;-67
2023/03/02 09:02:11;;;;;;;30.20;18.00;;;;;;;8.44;49.99;100869.66;5004434;28;20057;-66
2023/03/02 09:04:37;;;;;;;26.98;17.92;;;;;;;8.36;51.10;100859.53;5004407;28;20491;-66
2023/03/02 09:07:02;;;;;;;27.70;18.20;;;;;;;8.43;51.15;100873.31;5005808;28;20320;-65
2023/03/02 09:09:28;;;;;;;29.92;18.27;;;;;;;8.44;51.20;100865.16;5007306;28;20035;-66
2023/03/02 09:11:53;;;;;;;30.73;19.30;;;;;;;8.52;52.19;100864.63;5008589;28;20021;-66
2023/03/02 09:14:19;;;;;;;27.85;17.58;;;;;;;8.70;51.96;100871.34;5008339;28;20030;-66
2023/03/02 09:16:45;;;;;;;29.23;18.63;;;;;;;8.90;52.20;100879.66;5009058;28;20295;-67
2023/03/02 09:19:12;;;;;;;31.15;18.42;;;;;;;9.20;51.46;100874.72;5011606;28;20026;-66
2023/03/02 09:21:38;;;;;;;29.85;17.63;;;;;;;9.58;50.12;100847.81;5009269;28;20022;-66
2023/03/02 09:24:04;;;;;;;31.05;17.85;;;;;;;11.60;46.74;100859.19;5007721;28;20046;-65
2023/03/02 09:26:29;;;;;;;27.27;18.05;;;;;;;13.77;42.10;100842.53;5009529;28;20030;-65
2023/03/02 09:28:55;;;;;;;27.58;18.25;;;;;;;15.45;38.42;100831.47;5009445;28;20034;-67
2023/03/02 09:31:21;;;;;;;26.10;17.05;;;;;;;17.13;35.85;100848.09;5009166;28;21852;-65
2023/03/02 09:33:46;;;;;;;27.35;18.65;;;;;;;18.36;34.03;100845.25;5008828;28;20034;-65
2023/03/02 09:36:18;;;;;;;26.73;17.00;;;;;;;19.77;31.48;100823.25;5008796;28;20040;-66
2023/03/02 09:38:43;;;;;;;23.75;17.77;;;;;;;20.32;30.09;100816.69;5009014;28;20034;-66
2023/03/02 09:41:18;;;;;;;25.63;17.90;;;;;;;20.79;29.83;100836.31;5009706;28;20053;-65
2023/03/02 09:44:02;;;;;;;23.88;17.25;;;;;;;21.24;29.26;100830.63;5007127;28;20040;-66
2023/03/02 09:46:50;;;;;;;23.23;16.92;;;;;;;21.65;28.20;100821.69;5008687;28;20392;-66
2023/03/02 09:49:50;;;;;;;22.50;17.55;;;;;;;22.08;28.21;100826.13;5009039;28;20081;-66
2023/03/02 09:52:33;;;;;;;23.38;17.10;;;;;;;22.12;27.50;100829.34;5009050;28;20043;-67
2023/03/02 09:55:12;;;;;;;24.92;17.17;;;;;;;22.61;27.10;100815.66;5010686;28;20044;-66
2023/03/02 09:57:38;;;;;;;18.25;15.80;;;;;;;23.17;26.70;100826.28;5007903;28;20444;-66
2023/03/02 10:00:12;;;;;;;21.23;16.58;;;;;;;23.35;26.40;100825.78;5005059;28;20038;-67
2023/03/02 10:02:43;;;;;;;;;;;;;;;22.94;27.08;100825.75;5006439;28;20065;-66
2023/03/02 10:05:17;;;;;;;21.83;17.42;;;;;;;23.16;26.84;100829.22;5008279;28;19913;-66
2023/03/02 10:07:45;;;;;;;21.40;17.10;;;;;;;22.91;27.14;100820.69;5007382;28;20038;-66
2023/03/02 10:10:21;;;;;;;18.48;15.65;;;;;;;23.08;26.72;100832.97;5007055;28;20045;-66
2023/03/02 10:13:12;;;;;;;18.33;16.50;;;;;;;23.16;26.92;100831.97;5008317;28;20088;-66
2023/03/02 10:15:40;;;;;;;17.77;15.60;;;;;;;23.15;26.85;100792.78;5005666;28;20070;-66
2023/03/02 10:18:39;;;;;;;19.92;16.45;;;;;;;23.40;26.66;100818.63;5006646;28;20120;-66
2023/03/02 10:21:29;;;;;;;17.27;15.52;;;;;;;23.71;26.23;100826.31;5006733;28;20030;-67
2023/03/02 10:24:13;;;;;;;21.08;16.50;;;;;;;23.78;26.02;100817.06;5007201;28;20069;-67
2023/03/02 10:26:49;;;;;;;23.52;16.08;;;;;;;24.10;25.57;100788.88;5006579;28;20022;-67
2023/03/02 10:29:38;;;;;;;24.80;16.55;;;;;;;24.35;25.64;100795.38;5008575;28;20030;-68
2023/03/02 10:32:31;;;;;;;20.20;16.10;;;;;;;24.50;25.61;100805.31;5006682;28;20643;-66
2023/03/02 10:34:59;;;;;;;20.65;15.60;;;;;;;24.50;25.75;100805.31;5008282;28;20022;-66
2023/03/02 10:37:29;;;;;;;19.65;16.83;;;;;;;24.23;26.03;100805.31;5008530;28;20444;-67
2023/03/02 10:39:55;;;;;;;16.58;14.82;;;;;;;25.08;25.17;100810.66;5008530;28;20045;-66
2023/03/02 10:42:36;;;;;;;20.15;15.02;;;;;;;25.09;24.99;100808.78;5006772;28;20365;-67
2023/03/02 10:45:17;;;;;;;17.42;15.52;;;;;;;24.64;25.50;100802.34;5008333;28;20037;-66
2023/03/02 10:47:43;;;;;;;17.25;15.45;;;;;;;25.69;24.62;100775.31;5007811;28;20492;-67
2023/03/02 10:50:22;;;;;;;18.92;15.80;;;;;;;25.26;24.59;100775.13;5008083;28;20033;-67
2023/03/02 10:52:49;;;;;;;18.42;16.10;;;;;;;23.84;26.45;100786.09;5007265;28;20080;-67
2023/03/02 10:55:14;;;;;;;20.60;16.80;;;;;;;22.23;27.99;100777.72;5007307;28;20022;-67
2023/03/02 10:57:45;;;;;;;22.00;16.27;;;;;;;21.23;29.30;100771.66;5007138;28;20083;-68
2023/03/02 11:00:19;;;;;;;25.60;17.42;;;;;;;20.01;31.38;100792.25;5006043;28;20053;-67
2023/03/02 11:03:00;;;;;;;21.25;16.98;;;;;;;18.87;32.90;100789.56;5006801;28;20038;-68
2023/03/02 11:05:35;;;;;;;22.00;17.15;;;;;;;17.77;34.71;100792.13;5006113;28;20025;-67
2023/03/02 11:08:07;;;;;;;22.15;17.55;;;;;;;17.09;35.91;100800.63;5007293;28;20025;-67
2023/03/02 11:11:02;;;;;;;22.75;17.80;;;;;;;16.64;36.61;100798.22;5006909;28;20079;-66
2023/03/02 11:13:38;;;;;;;22.98;17.85;;;;;;;15.58;38.28;100775.97;5004632;28;20050;-67
2023/03/02 11:16:15;;;;;;;22.48;17.00;;;;;;;15.17;40.05;100803.59;5007119;28;20510;-66
2023/03/02 11:18:55;;;;;;;23.80;17.85;;;;;;;14.50;41.30;100802.22;5007341;28;20079;-68
2023/03/02 11:21:22;;;;;;;23.83;17.45;;;;;;;13.97;42.49;100804.63;5006332;28;20136;-68
2023/03/02 11:23:56;;;;;;;24.33;17.42;;;;;;;13.44;43.63;100800.66;5006948;28;20050;-67